ADDS METAR Data INFO
IDs: Format: Raw Decoded Include TAF

Data at: 0943 UTC 25 Jun 2018

KOWD 250937Z AUTO 35005KT 10SM SCT011 BKN016 OVC120 19/18 A2979 RMK AO2 T01940178
KOWD 250903Z AUTO VRB04KT 7SM FEW009 BKN013 OVC020 19/18 A2978 RMK AO2 T01940183
KOWD 250853Z AUTO 34005KT 10SM FEW011 BKN020 OVC025 19/18 A2979 RMK AO2 RAB14E29 SLP086 P0000 60000 T01940183 53013
KOWD 250833Z AUTO 34006KT 10SM SCT008 SCT017 OVC024 20/18 A2979 RMK AO2 RAB14E29 P0000 T02000183
KOWD 250753Z AUTO 34005KT 9SM OVC008 20/19 A2977 RMK AO2 CIG 006V012 SLP080 T02000189
KOWD 250706Z AUTO 31004KT 10SM OVC008 20/18 A2975 RMK AO2 T02000183
KOWD 250653Z AUTO 28005KT 10SM OVC010 20/18 A2975 RMK AO2 RAE53 CIG 008V013 SLP075 P0000 T02000183
KOWD 250643Z AUTO 30004KT 9SM -RA BKN010 BKN070 OVC090 20/18 A2975 RMK AO2 LTG DSNT NE CIG 009V018 P0000 T02000183
KOWD 250617Z AUTO 35004KT 4SM -RA BR SCT012 BKN047 OVC070 21/19 A2974 RMK AO2 LTG DSNT NE P0000 T02060189
KOWD 250611Z AUTO 33006KT 2 1/2SM -RA BR SCT009 BKN014 OVC070 22/20 A2975 RMK AO2 LTG DSNT N AND NE P0000 T02170200
KOWD 250553Z AUTO 25004KT 3SM -RA BR FEW006 OVC014 22/21 A2975 RMK AO2 LTG DSNT N RAB23 SLP073 P0000 60000 T02170206 10222 20211 58005
KOWD 250453Z AUTO 20003KT 5SM BR OVC005 21/20 A2975 RMK AO2 LTG DSNT NW CIG 004V009 SLP073 T02110200 402830156
KOWD 250442Z AUTO 17003KT 5SM BR BKN005 BKN032 OVC090 21/20 A2975 RMK AO2 LTG DSNT NW CIG 004V009 T02110200
KOWD 250418Z AUTO 16004KT 5SM BR SCT008 BKN011 OVC090 22/20 A2976 RMK AO2 T02220200
KOWD 250353Z AUTO 00000KT 4SM BR OVC007 22/21 A2978 RMK AO2 RAB26E40 CIG 005V010 SLP082 P0000 T02170206
KOWD 250253Z AUTO 00000KT 4SM BR OVC007 22/21 A2976 RMK AO2 SLP077 60000 T02170206 58010
KOWD 250228Z AUTO 00000KT 6SM BR BKN007 OVC017 22/20 A2977 RMK AO2 T02170200
KOWD 250153Z 19003KT 7SM SCT006 BKN023 BKN028 22/21 A2979 RMK AO2 RAE05 SLP085 P0000 T02170206
KOWD 250126Z 17003KT 5SM BR FEW006 SCT039 21/20 A2978 RMK AO2 RAE05 P0000 T02110200
KOWD 250053Z 00000KT 4SM -RA BR SCT037 BKN060 OVC110 22/21 A2979 RMK AO2 SLP085 P0000 T02170206
KOWD 250032Z 16003KT 3SM -RA BR SCT036 BKN055 OVC100 22/21 A2979 RMK AO2 P0000 T02170206
KOWD 250024Z 15004KT 2 1/2SM -RA BR FEW040 BKN075 OVC100 22/21 A2979 RMK AO2 P0000 T02170206
KOWD 250001Z 19003KT 3SM -RA BR FEW060 BKN080 OVC100 22/21 A2979 RMK AO2 P0000 T02220211
KOWD 242353Z 19004KT 2 1/2SM -RA BR FEW060 BKN080 OVC110 23/21 A2979 RMK AO2 RAB13 SLP087 P0000 60000 T02280206 10283 20228 53011
KOWD 242341Z 23005KT 2SM -RA BR SCT080 OVC110 23/21 A2980 RMK AO2 RAB13 P0000 T02280206
KOWD 242253Z 19005KT 10SM SCT070 BKN100 OVC120 24/20 A2978 RMK AO2 SLP084 T02390200
KOWD 242153Z 18009KT 10SM BKN075 BKN110 26/20 A2976 RMK AO2 SLP078 T02610200
KOWD 242053Z 19007KT 10SM FEW035 OVC080 27/20 A2976 RMK AO2 SLP076 T02720200 58007
KOWD 241953Z 19006KT 10SM BKN034 BKN043 OVC080 28/19 A2977 RMK AO2 SLP080 T02780194
KOWD 241900Z 25007KT 10SM SCT037 OVC090 28/19 A2977 RMK AO2 T02780189
KOWD 241853Z 23008KT 10SM BKN025 OVC055 28/19 A2978 RMK AO2 SLP082 T02780189
KOWD 241753Z 21004KT 10SM BKN025 OVC055 27/18 A2978 RMK AO2 SLP084 T02670183 10272 20172 58017
KOWD 241653Z 25007KT 10SM BKN022 OVC060 26/19 A2980 RMK AO2 SLP091 T02610189
KOWD 241553Z 26006KT 10SM BKN020 24/18 A2982 RMK AO2 SLP096 T02440178
KOWD 241519Z 22007KT 10SM BKN016 24/18 A2983 RMK AO2 T02390178
KOWD 241453Z 23007KT 10SM OVC012 23/18 A2983 RMK AO2 SLP100 T02280178 53004
KOWD 241353Z 24007KT 10SM OVC008 21/17 A2982 RMK AO2 SLP098 T02060167
KOWD 241253Z 23005KT 10SM OVC008 19/16 A2982 RMK AO2 SLP098 T01890161
KOWD 241153Z 00000KT 10SM OVC006 17/16 A2982 RMK AO2 SLP096 T01720161 10172 20156 53004
KOWD 241135Z 18003KT 8SM OVC005 17/15 A2982 RMK AO2 T01670150
KOWD 241112Z 17003KT 6SM BR OVC004 17/15 A2981 RMK AO2 T01670150
KOWD 241053Z 17003KT 5SM BR OVC005 16/15 A2981 RMK AO2 SLP094 T01610150
KOWD 241032Z 19004KT 8SM BKN006 OVC010 16/14 A2981 RMK AO2 CIG 005V009 T01610144
KOWD 240953Z AUTO 24003KT 9SM OVC012 16/14 A2981 RMK AO2 SLP093 T01560139
KOWD 240948Z AUTO 25003KT 9SM SCT007 OVC014 16/14 A2980 RMK AO2
KOWD 240909Z AUTO 00000KT 7SM BKN007 OVC017 16/14 A2980 RMK AO2 T01560144
KOWD 240853Z AUTO 00000KT 6SM BR SCT007 OVC017 16/14 A2980 RMK AO2 SLP091 T01560144 56002
KOWD 240850Z AUTO 00000KT 6SM BR SCT007 OVC017 16/14 A2980 RMK AO2
KOWD 240813Z AUTO 00000KT 9SM OVC016 16/14 A2980 RMK AO2 T01560144
KOWD 240753Z AUTO 26003KT 7SM SCT004 OVC013 16/14 A2981 RMK AO2 SLP092 T01560139
KOWD 240739Z AUTO 30003KT 4SM BR BKN004 OVC013 16/14 A2981 RMK AO2 T01560139
KOWD 240714Z AUTO 00000KT 2 1/2SM BR OVC004 16/14 A2981 RMK AO2 T01560144
KOWD 240653Z AUTO 00000KT 5SM BR OVC005 16/14 A2981 RMK AO2 SLP093 T01560144
KOWD 240609Z AUTO 00000KT 6SM BR OVC005 16/14 A2982 RMK AO2 T01560144
KOWD 240553Z AUTO 33003KT 4SM BR OVC004 16/14 A2982 RMK AO2 SLP097 T01560144 10161 20156 58002
KOWD 240533Z AUTO 31004KT 7SM OVC004 16/14 A2983 RMK AO2 T01560144
KOWD 240453Z AUTO 31003KT 4SM BR OVC005 16/15 A2983 RMK AO2 SLP100 T01560150 402000122
KOWD 240401Z AUTO 00000KT 3SM BR OVC004 16/15 A2983 RMK AO2 T01610150
KOWD 240353Z AUTO 00000KT 3SM BR OVC005 16/14 A2983 RMK AO2 CIG 003V007 SLP099 T01610144
KOWD 240340Z AUTO 00000KT 2 1/2SM BR OVC006 16/15 A2982 RMK AO2 CIG 003V007 T01610150
KOWD 240332Z AUTO 00000KT 3SM BR OVC006 16/15 A2983 RMK AO2 CIG 003V007 T01610150
KOWD 240314Z AUTO 00000KT 2 1/2SM BR OVC006 16/15 A2983 RMK AO2 T01610150
KOWD 240253Z AUTO 00000KT 5SM BR BKN006 OVC011 16/14 A2983 RMK AO2 SLP102 T01610144 58000
KOWD 240244Z AUTO 00000KT 8SM BKN005 OVC011 16/15 A2984 RMK AO2 T01610150
KOWD 240235Z AUTO 00000KT 8SM SCT005 OVC011 16/15 A2984 RMK AO2 T01610150
KOWD 240214Z AUTO 05004KT 3SM BR OVC004 16/15 A2984 RMK AO2 T01610150
KOWD 240153Z 05003KT 2SM BR OVC004 16/14 A2984 RMK AO2 SLP105 T01610144
KOWD 240053Z 00000KT 2SM BR OVC004 16/15 A2984 RMK AO2 SLP104 T01610150
KOWD 240033Z 02003KT 2 1/2SM BR OVC004 16/15 A2984 RMK AO2 T01610150
KOWD 240017Z 05003KT 1 3/4SM BR OVC004 16/15 A2984 RMK AO2 T01610150
KOWD 232353Z 05004KT 2 1/2SM BR OVC005 16/15 A2984 RMK AO2 SLP103 T01610150 10183 20161 55005
KOWD 232310Z 05008KT 2SM BR OVC005 16/15 A2983 RMK AO2 T01610150
KOWD 232253Z 03006KT 1 3/4SM BR OVC006 16/14 A2983 RMK AO2 CIG 004V010 SLP102 T01610144
KOWD 232153Z 05006KT 1 3/4SM BR OVC006 17/15 A2985 RMK AO2 CIG 004V009 SLP107 T01670150